createdAt,value
2022-12-04T00:01:53.515Z,101472.09
2022-12-04T00:03:58.658Z,101475.09
2022-12-04T00:06:04.841Z,101469.09
2022-12-04T00:08:06.991Z,101463.16
2022-12-04T00:10:09.962Z,101466.16
2022-12-04T00:12:11.858Z,101465.84
2022-12-04T00:14:13.778Z,101468.28
2022-12-04T00:16:18.852Z,101466.53
2022-12-04T00:18:20.917Z,101462.34
2022-12-04T00:20:23.460Z,101458.97
2022-12-04T00:22:25.374Z,101470.28
2022-12-04T00:24:27.240Z,101469.22
2022-12-04T00:26:31.526Z,101464.84
2022-12-04T00:28:34.640Z,101459.16
2022-12-04T00:30:42.111Z,101463.25
2022-12-04T00:32:44.020Z,101459.06
2022-12-04T00:34:46.256Z,101456.06
2022-12-04T00:36:48.169Z,101451.69
2022-12-04T00:38:50.488Z,101447.44
2022-12-04T00:40:53.307Z,101445.81
2022-12-04T00:42:55.353Z,101446.84
2022-12-04T00:44:57.661Z,101451.22
2022-12-04T00:46:59.688Z,101435.28
2022-12-04T00:49:02.821Z,101436.88
2022-12-04T00:51:08.270Z,101436.09
2022-12-04T00:53:10.268Z,101437.13
2022-12-04T00:55:12.210Z,101432.06
2022-12-04T00:57:14.170Z,101425.94
2022-12-04T00:59:16.134Z,101431.06
2022-12-04T01:01:20.153Z,101422.56
2022-12-04T01:03:22.287Z,101429.31
2022-12-04T01:05:24.264Z,101425.00
2022-12-04T01:07:26.768Z,101430.41
2022-12-04T01:09:28.759Z,101436.63
2022-12-04T01:11:31.147Z,101432.31
2022-12-04T01:13:33.152Z,101433.31
2022-12-04T01:15:39.796Z,101427.19
2022-12-04T01:17:41.792Z,101430.41
2022-12-04T01:19:43.780Z,101419.22
2022-12-04T01:21:45.794Z,101423.69
2022-12-04T01:23:48.029Z,101424.47
2022-12-04T01:25:52.420Z,101423.88
2022-12-04T01:27:54.463Z,101429.00
2022-12-04T01:29:56.692Z,101421.56
2022-12-04T01:31:59.022Z,101424.63
2022-12-04T01:34:01.113Z,101422.81
2022-12-04T01:36:05.338Z,101419.44
2022-12-04T01:38:07.285Z,101411.94
2022-12-04T01:40:13.991Z,101416.94
2022-12-04T01:42:16.324Z,101416.94
2022-12-04T01:44:19.056Z,101415.44
2022-12-04T01:46:21.175Z,101414.59
2022-12-04T01:48:26.736Z,101416.13
2022-12-04T01:50:29.796Z,101412.75
2022-12-04T01:52:31.757Z,101414.22
2022-12-04T01:54:37.703Z,101409.25
2022-12-04T01:56:45.182Z,101417.19
2022-12-04T01:58:51.331Z,101402.50
2022-12-04T02:00:58.525Z,101412.56
2022-12-04T02:03:01.649Z,101408.22
2022-12-04T02:05:07.105Z,101410.53
2022-12-04T02:07:09.673Z,101409.91
2022-12-04T02:09:12.086Z,101409.91
2022-12-04T02:11:15.767Z,101413.00
2022-12-04T02:13:25.516Z,101407.09
2022-12-04T02:15:40.115Z,101406.53
2022-12-04T02:17:51.876Z,101408.84
2022-12-04T02:19:58.110Z,101404.44
2022-12-04T02:22:10.297Z,101407.91
2022-12-04T02:24:15.058Z,101398.34
2022-12-04T02:26:24.104Z,101403.94
2022-12-04T02:28:34.837Z,101408.28
2022-12-04T02:30:41.451Z,101401.47
2022-12-04T02:32:51.721Z,101398.28
2022-12-04T02:34:59.911Z,101406.50
2022-12-04T02:37:09.027Z,101404.22
2022-12-04T02:39:19.600Z,101397.16
2022-12-04T02:41:23.262Z,101398.63
2022-12-04T02:43:31.649Z,101394.44
2022-12-04T02:45:40.574Z,101398.75
2022-12-04T02:47:44.821Z,101395.53
2022-12-04T02:49:52.623Z,101390.13
2022-12-04T02:51:57.515Z,101393.03
2022-12-04T02:54:08.130Z,101386.63
2022-12-04T02:56:14.917Z,101389.78
2022-12-04T02:58:25.861Z,101390.81
2022-12-04T03:00:30.476Z,101381.38
2022-12-04T03:02:39.171Z,101395.94
2022-12-04T03:04:42.779Z,101385.69
2022-12-04T03:06:49.280Z,101395.00
2022-12-04T03:08:59.182Z,101377.84
2022-12-04T03:11:02.050Z,101383.25
2022-12-04T03:13:09.761Z,101384.38
2022-12-04T03:15:23.380Z,101389.66
2022-12-04T03:17:33.868Z,101377.44
2022-12-04T03:19:41.951Z,101384.00
2022-12-04T03:21:51.258Z,101381.38
2022-12-04T03:24:00.196Z,101380.56
2022-12-04T03:26:10.641Z,101383.19
2022-12-04T03:28:22.957Z,101377.41
2022-12-04T03:30:25.109Z,101379.72
2022-12-04T03:32:34.070Z,101374.25
2022-12-04T03:34:45.295Z,101377.75
2022-12-04T03:36:53.863Z,101378.97
2022-12-04T03:39:01.551Z,101372.84
2022-12-04T03:41:05.446Z,101365.47
2022-12-04T03:43:13.602Z,101364.41
2022-12-04T03:45:22.391Z,101366.16
2022-12-04T03:47:30.577Z,101369.59
2022-12-04T03:49:44.064Z,101372.97
2022-12-04T03:51:52.473Z,101376.00
2022-12-04T03:54:02.631Z,101366.38
2022-12-04T03:56:11.313Z,101371.81
2022-12-04T03:58:20.575Z,101376.22
2022-12-04T04:00:23.205Z,101380.38
2022-12-04T04:02:28.433Z,101379.03
2022-12-04T04:04:35.287Z,101378.56
2022-12-04T04:06:42.584Z,101381.94
2022-12-04T04:08:49.186Z,101382.63
2022-12-04T04:10:55.465Z,101384.38
2022-12-04T04:13:05.661Z,101376.22
2022-12-04T04:15:16.384Z,101374.53
2022-12-04T04:17:26.814Z,101369.28
2022-12-04T04:19:36.700Z,101371.09
2022-12-04T04:21:45.852Z,101376.41
2022-12-04T04:23:54.486Z,101381.25
2022-12-04T04:26:00.871Z,101371.03
2022-12-04T04:28:02.790Z,101370.69
2022-12-04T04:30:06.934Z,101377.63
2022-12-04T04:32:09.690Z,101382.34
2022-12-04T04:34:17.773Z,101378.78
2022-12-04T04:36:33.416Z,101375.66
2022-12-04T04:38:41.904Z,101378.34
2022-12-04T04:40:50.883Z,101376.81
2022-12-04T04:43:03.769Z,101377.53
2022-12-04T04:45:14.016Z,101372.50
2022-12-04T04:47:24.243Z,101372.97
2022-12-04T04:49:31.241Z,101368.53
2022-12-04T04:51:35.387Z,101380.97
2022-12-04T04:53:43.484Z,101369.28
2022-12-04T04:55:46.268Z,101365.22
2022-12-04T04:57:48.558Z,101372.63
2022-12-04T04:59:50.482Z,101375.19
2022-12-04T05:01:52.684Z,101366.84
2022-12-04T05:03:54.673Z,101369.13
2022-12-04T05:05:56.645Z,101370.81
2022-12-04T05:07:58.609Z,101386.22
2022-12-04T05:10:00.534Z,101372.56
2022-12-04T05:12:02.435Z,101378.66
2022-12-04T05:14:06.072Z,101376.22
2022-12-04T05:16:12.522Z,101371.91
2022-12-04T05:18:14.440Z,101392.22
2022-12-04T05:20:16.489Z,101384.00
2022-12-04T05:22:19.519Z,101377.09
2022-12-04T05:24:21.478Z,101385.63
2022-12-04T05:26:23.500Z,101386.22
2022-12-04T05:28:25.430Z,101379.78
2022-12-04T05:30:27.318Z,101384.63
2022-12-04T05:32:30.004Z,101381.25
2022-12-04T05:34:32.100Z,101380.91
2022-12-04T05:36:34.070Z,101381.56
2022-12-04T05:38:36.586Z,101382.72
2022-12-04T05:40:38.512Z,101382.59
2022-12-04T05:42:40.447Z,101378.34
2022-12-04T05:44:42.345Z,101383.41
2022-12-04T05:46:44.354Z,101381.84
2022-12-04T05:48:46.490Z,101381.72
2022-12-04T05:50:48.444Z,101382.59
2022-12-04T05:52:50.373Z,101381.66
2022-12-04T05:54:52.316Z,101384.22
2022-12-04T05:56:54.243Z,101381.41
2022-12-04T05:58:56.172Z,101384.34
2022-12-04T06:00:58.189Z,101388.34
2022-12-04T06:03:00.198Z,101382.47
2022-12-04T06:05:02.171Z,101386.09
2022-12-04T06:07:04.323Z,101388.72
2022-12-04T06:09:08.387Z,101386.09
2022-12-04T06:11:14.403Z,101391.28
2022-12-04T06:13:16.280Z,101389.66
2022-12-04T06:15:18.281Z,101394.06
2022-12-04T06:17:20.313Z,101391.50
2022-12-04T06:19:23.192Z,101384.75
2022-12-04T06:21:27.831Z,101386.56
2022-12-04T06:23:29.744Z,101386.50
2022-12-04T06:25:31.650Z,101390.88
2022-12-04T06:27:33.739Z,101393.66
2022-12-04T06:29:35.727Z,101397.34
2022-12-04T06:31:38.460Z,101397.50
2022-12-04T06:33:40.965Z,101387.72
2022-12-04T06:35:42.926Z,101393.03
2022-12-04T06:37:44.879Z,101399.56
2022-12-04T06:39:46.803Z,101393.09
2022-12-04T06:41:48.791Z,101395.75
2022-12-04T06:43:51.947Z,101391.75
2022-12-04T06:46:00.259Z,101401.88
2022-12-04T06:48:02.374Z,101393.50
2022-12-04T06:50:05.007Z,101390.22
2022-12-04T06:52:06.928Z,101388.53
2022-12-04T06:54:09.907Z,101395.25
2022-12-04T06:56:18.050Z,101386.00
2022-12-04T06:58:20.017Z,101388.94
2022-12-04T07:00:21.978Z,101388.59
2022-12-04T07:02:24.029Z,101386.56
2022-12-04T07:04:26.007Z,101393.09
2022-12-04T07:06:32.129Z,101391.63
2022-12-04T07:08:37.974Z,101395.13
2022-12-04T07:10:40.486Z,101392.78
2022-12-04T07:12:43.309Z,101391.34
2022-12-04T07:14:45.572Z,101397.34
2022-12-04T07:16:48.733Z,101385.88
2022-12-04T07:18:57.086Z,101392.03
2022-12-04T07:20:59.926Z,101400.94
2022-12-04T07:23:07.062Z,101404.63
2022-12-04T07:25:10.002Z,101405.19
2022-12-04T07:27:12.052Z,101406.19
2022-12-04T07:29:14.494Z,101410.63
2022-12-04T07:31:19.609Z,101408.22
2022-12-04T07:33:21.724Z,101410.38
2022-12-04T07:35:23.658Z,101414.81
2022-12-04T07:37:25.577Z,101413.56
2022-12-04T07:39:28.496Z,101417.22
2022-12-04T07:41:30.378Z,101418.78
2022-12-04T07:43:33.536Z,101416.56
2022-12-04T07:45:37.503Z,101418.91
2022-12-04T07:47:39.467Z,101416.72
2022-12-04T07:49:41.404Z,101426.53
2022-12-04T07:51:43.341Z,101418.03
2022-12-04T07:53:45.677Z,101422.53
2022-12-04T07:55:53.314Z,101420.59
2022-12-04T07:57:55.310Z,101424.22
2022-12-04T07:59:57.490Z,101424.22
2022-12-04T08:01:59.768Z,101430.97
2022-12-04T08:04:03.237Z,101424.16
2022-12-04T08:06:06.676Z,101431.09
2022-12-04T08:08:08.753Z,101434.28
2022-12-04T08:10:11.076Z,101436.31
2022-12-04T08:12:12.953Z,101430.97
2022-12-04T08:14:15.051Z,101436.09
2022-12-04T08:16:17.261Z,101438.00
2022-12-04T08:18:19.649Z,101438.66
2022-12-04T08:20:21.748Z,101429.91
2022-12-04T08:22:25.456Z,101438.13
2022-12-04T08:24:27.584Z,101437.03
2022-12-04T08:26:31.032Z,101440.63
2022-12-04T08:28:33.592Z,101444.88
2022-12-04T08:30:36.015Z,101446.56
2022-12-04T08:32:38.014Z,101448.38
2022-12-04T08:34:40.069Z,101450.88
2022-12-04T08:36:42.168Z,101451.75
2022-12-04T08:38:44.213Z,101459.00
2022-12-04T08:40:46.131Z,101461.50
2022-12-04T08:42:48.077Z,101452.06
2022-12-04T08:44:50.105Z,101456.56
2022-12-04T08:46:52.097Z,101455.63
2022-12-04T08:48:54.839Z,101457.50
2022-12-04T08:50:57.074Z,101462.56
2022-12-04T08:52:59.172Z,101463.31
2022-12-04T08:55:01.100Z,101464.00
2022-12-04T08:57:03.591Z,101458.31
2022-12-04T08:59:05.589Z,101467.97
2022-12-04T09:01:09.598Z,101471.38
2022-12-04T09:03:14.965Z,101461.69
2022-12-04T09:05:17.799Z,101471.66
2022-12-04T09:07:19.686Z,101469.59
2022-12-04T09:09:21.616Z,101472.22
2022-12-04T09:11:26.610Z,101476.94
2022-12-04T09:13:28.557Z,101475.78
2022-12-04T09:15:30.657Z,101472.66
2022-12-04T09:17:32.701Z,101477.75
2022-12-04T09:19:35.589Z,101479.34
2022-12-04T09:21:37.820Z,101482.47
2022-12-04T09:23:40.279Z,101478.34
2022-12-04T09:25:42.165Z,101481.72
2022-12-04T09:27:45.105Z,101480.97
2022-12-04T09:29:47.000Z,101484.47
2022-12-04T09:31:48.945Z,101478.16
2022-12-04T09:33:51.428Z,101470.47
2022-12-04T09:35:53.308Z,101485.34
2022-12-04T09:37:55.391Z,101479.53
2022-12-04T09:39:57.395Z,101488.53
2022-12-04T09:42:21.782Z,101481.72
2022-12-04T09:44:36.793Z,101484.41
2022-12-04T09:46:46.630Z,101482.72
2022-12-04T09:48:51.359Z,101483.16
2022-12-04T09:50:54.736Z,101482.41
2022-12-04T09:53:02.206Z,101485.25
2022-12-04T09:55:05.805Z,101497.47
2022-12-04T09:57:22.269Z,101494.91
2022-12-04T09:59:27.710Z,101489.97
2022-12-04T10:01:37.124Z,101491.59
2022-12-04T10:03:40.583Z,101490.97
2022-12-04T10:05:43.027Z,101488.41
2022-12-04T10:08:03.470Z,101497.19
2022-12-04T10:10:13.540Z,101494.50
2022-12-04T10:12:32.352Z,101495.69
2022-12-04T10:14:44.540Z,101486.13
2022-12-04T10:16:59.527Z,101495.28
2022-12-04T10:19:16.951Z,101492.00
2022-12-04T10:21:33.751Z,101488.28
2022-12-04T10:23:45.440Z,101482.63
2022-12-04T10:25:50.660Z,101484.16
2022-12-04T10:27:54.169Z,101479.78
2022-12-04T10:30:00.759Z,101479.72
2022-12-04T10:32:16.594Z,101480.66
2022-12-04T10:34:25.704Z,101471.56
2022-12-04T10:36:32.985Z,101465.41
2022-12-04T10:38:44.254Z,101476.63
2022-12-04T10:40:51.352Z,101474.88
2022-12-04T10:43:01.056Z,101470.00
2022-12-04T10:45:04.146Z,101476.56
2022-12-04T10:47:07.229Z,101457.94
2022-12-04T10:49:19.930Z,101459.56
2022-12-04T10:51:23.227Z,101464.94
2022-12-04T10:53:31.370Z,101460.44
2022-12-04T10:55:36.739Z,101466.78
2022-12-04T10:57:41.875Z,101472.50
2022-12-04T10:59:55.706Z,101469.66
2022-12-04T11:02:12.800Z,101464.88
2022-12-04T11:04:24.934Z,101469.13
2022-12-04T11:06:28.166Z,101462.25
2022-12-04T11:08:42.205Z,101469.00
2022-12-04T11:10:44.893Z,101468.31
2022-12-04T11:12:57.650Z,101465.22
2022-12-04T11:15:02.049Z,101465.00
2022-12-04T11:17:07.147Z,101463.88
2022-12-04T11:19:28.741Z,101464.41
2022-12-04T11:21:32.424Z,101466.03
2022-12-04T11:23:43.344Z,101459.28
2022-12-04T11:25:48.105Z,101470.47
2022-12-04T11:27:53.371Z,101466.03
2022-12-04T11:29:56.866Z,101464.41
2022-12-04T11:32:05.722Z,101474.47
2022-12-04T11:34:18.626Z,101466.16
2022-12-04T11:36:29.904Z,101468.66
2022-12-04T11:38:35.316Z,101472.38
2022-12-04T11:40:37.865Z,101469.47
2022-12-04T11:42:39.715Z,101465.34
2022-12-04T11:44:51.205Z,101470.41
2022-12-04T11:46:56.334Z,101467.78
2022-12-04T11:48:59.369Z,101472.63
2022-12-04T11:51:09.860Z,101476.63
2022-12-04T11:53:14.392Z,101480.78
2022-12-04T11:55:30.269Z,101483.28
2022-12-04T11:57:44.270Z,101478.03
2022-12-04T11:59:54.662Z,101474.84
2022-12-04T12:02:16.613Z,101478.22
2022-12-04T12:04:20.206Z,101476.16
2022-12-04T12:06:34.465Z,101481.34
2022-12-04T12:08:46.609Z,101469.47
2022-12-04T12:10:59.628Z,101474.53
2022-12-04T12:13:11.545Z,101474.53
2022-12-04T12:15:16.927Z,101466.97
2022-12-04T12:17:24.105Z,101466.91
2022-12-04T12:19:29.504Z,101465.16
2022-12-04T12:21:50.234Z,101469.66
2022-12-04T12:23:56.265Z,101471.56
2022-12-04T12:26:09.327Z,101471.50
2022-12-04T12:28:21.106Z,101471.56
2022-12-04T12:30:25.308Z,101457.06
2022-12-04T12:32:37.925Z,101456.91
2022-12-04T12:34:43.337Z,101456.84
2022-12-04T12:36:49.997Z,101451.94
2022-12-04T12:38:59.088Z,101457.00
2022-12-04T12:41:11.038Z,101449.03
2022-12-04T12:43:32.725Z,101447.00
2022-12-04T12:45:43.154Z,101448.75
2022-12-04T12:47:49.879Z,101445.38
2022-12-04T12:49:58.390Z,101449.44
2022-12-04T12:52:17.537Z,101441.88
2022-12-04T12:54:21.965Z,101435.06
2022-12-04T12:56:35.671Z,101422.44
2022-12-04T12:58:43.465Z,101432.69
2022-12-04T13:01:00.510Z,101424.00
2022-12-04T13:03:21.384Z,101427.59
2022-12-04T13:05:36.052Z,101430.19
2022-12-04T13:07:45.991Z,101431.94
2022-12-04T13:10:01.085Z,101437.88
2022-12-04T13:12:10.385Z,101428.50
2022-12-04T13:14:14.570Z,101428.44
2022-12-04T13:16:31.407Z,101436.09
2022-12-04T13:18:46.490Z,101427.69
2022-12-04T13:20:54.604Z,101431.94
2022-12-04T13:23:15.905Z,101441.38
2022-12-04T13:25:28.274Z,101429.19
2022-12-04T13:27:30.837Z,101436.38
2022-12-04T13:29:49.714Z,101434.69
2022-12-04T13:32:01.877Z,101443.78
2022-12-04T13:34:15.425Z,101432.56
2022-12-04T13:36:46.711Z,101427.63
2022-12-04T13:38:58.650Z,101423.78
2022-12-04T13:41:04.605Z,101433.31
2022-12-04T13:43:16.690Z,101433.44
2022-12-04T13:45:28.731Z,101433.63
2022-12-04T13:47:34.561Z,101427.88
2022-12-04T13:49:38.391Z,101432.19
2022-12-04T13:51:42.448Z,101430.53
2022-12-04T13:53:44.744Z,101434.25
2022-12-04T13:55:57.139Z,101432.72
2022-12-04T13:58:02.910Z,101437.78
2022-12-04T14:00:24.609Z,101436.59
2022-12-04T14:02:29.214Z,101436.97
2022-12-04T14:04:44.464Z,101446.16
2022-12-04T14:06:51.570Z,101447.22
2022-12-04T14:08:58.805Z,101441.03
2022-12-04T14:11:06.108Z,101438.84
2022-12-04T14:13:20.072Z,101431.09
2022-12-04T14:15:27.305Z,101436.81
2022-12-04T14:17:31.426Z,101437.97
2022-12-04T14:19:35.973Z,101436.97
2022-12-04T14:21:47.848Z,101435.47
2022-12-04T14:23:51.006Z,101432.78
2022-12-04T14:25:57.325Z,101433.78
2022-12-04T14:27:59.486Z,101436.34
2022-12-04T14:30:03.041Z,101443.03
2022-12-04T14:32:16.889Z,101433.59
2022-12-04T14:34:27.271Z,101430.22
2022-12-04T14:36:34.245Z,101429.34
2022-12-04T14:38:36.616Z,101435.06
2022-12-04T14:40:45.551Z,101431.69
2022-12-04T14:42:49.549Z,101437.59
2022-12-04T14:44:56.788Z,101441.22
2022-12-04T14:47:20.285Z,101438.00
2022-12-04T14:49:36.106Z,101441.56
2022-12-04T14:51:48.165Z,101440.63
2022-12-04T14:54:04.389Z,101438.41
2022-12-04T14:56:25.565Z,101445.34
2022-12-04T14:58:31.366Z,101441.56
2022-12-04T15:00:35.165Z,101446.84
2022-12-04T15:02:43.634Z,101450.47
2022-12-04T15:04:47.642Z,101456.66
2022-12-04T15:06:56.819Z,101450.72
2022-12-04T15:09:14.350Z,101449.59
2022-12-04T15:11:29.461Z,101459.34
2022-12-04T15:13:34.443Z,101468.75
2022-12-04T15:15:37.026Z,101468.28
2022-12-04T15:17:39.142Z,101466.72
2022-12-04T15:19:41.668Z,101464.03
2022-12-04T15:21:44.192Z,101475.84
2022-12-04T15:23:46.600Z,101476.09
2022-12-04T15:25:53.620Z,101470.97
2022-12-04T15:28:12.259Z,101471.91
2022-12-04T15:30:18.888Z,101479.00
2022-12-04T15:32:23.540Z,101482.03
2022-12-04T15:34:39.286Z,101486.66
2022-12-04T15:36:50.972Z,101493.41
2022-12-04T15:38:54.220Z,101487.72
2022-12-04T15:41:01.044Z,101497.38
2022-12-04T15:43:16.935Z,101494.41
2022-12-04T15:45:19.375Z,101494.28
2022-12-04T15:47:24.786Z,101511.47
2022-12-04T15:49:29.200Z,101503.13
2022-12-04T15:51:35.364Z,101519.28
2022-12-04T15:53:39.923Z,101515.06
2022-12-04T15:55:54.205Z,101510.81
2022-12-04T15:57:58.242Z,101512.28
2022-12-04T16:00:05.551Z,101519.22
2022-12-04T16:02:22.112Z,101520.19
2022-12-04T16:04:28.824Z,101512.81
2022-12-04T16:06:35.224Z,101526.50
2022-12-04T16:08:40.561Z,101537.56
2022-12-04T16:10:42.810Z,101541.25
2022-12-04T16:12:54.027Z,101542.03
2022-12-04T16:14:57.352Z,101530.28
2022-12-04T16:17:06.226Z,101546.47
2022-12-04T16:19:14.846Z,101544.44
2022-12-04T16:21:19.443Z,101547.91
2022-12-04T16:23:24.345Z,101551.88
2022-12-04T16:25:26.465Z,101552.69
2022-12-04T16:27:28.775Z,101558.16
2022-12-04T16:29:31.822Z,101562.06
2022-12-04T16:31:34.292Z,101564.88
2022-12-04T16:33:36.687Z,101558.81
2022-12-04T16:35:38.846Z,101564.06
2022-12-04T16:37:41.181Z,101562.00
2022-12-04T16:39:43.947Z,101560.38
2022-12-04T16:41:46.185Z,101561.81
2022-12-04T16:43:59.994Z,101553.69
2022-12-04T16:46:02.461Z,101554.22
2022-12-04T16:48:05.425Z,101555.25
2022-12-04T16:50:10.221Z,101562.69
2022-12-04T16:52:13.268Z,101560.06
2022-12-04T16:54:15.955Z,101561.13
2022-12-04T16:56:19.760Z,101559.50
2022-12-04T16:58:22.139Z,101559.75
2022-12-04T17:00:26.829Z,101574.06
2022-12-04T17:02:29.196Z,101571.38
2022-12-04T17:04:31.746Z,101570.13
2022-12-04T17:06:34.104Z,101577.97
2022-12-04T17:08:36.462Z,101564.84
2022-12-04T17:10:38.666Z,101567.56
2022-12-04T17:12:42.464Z,101572.94
2022-12-04T17:14:44.706Z,101569.56
2022-12-04T17:16:47.944Z,101569.31
2022-12-04T17:18:50.786Z,101573.63
2022-12-04T17:20:52.885Z,101570.25
2022-12-04T17:22:55.105Z,101561.81
2022-12-04T17:24:58.526Z,101571.81
2022-12-04T17:27:01.518Z,101573.94
2022-12-04T17:29:03.742Z,101572.94
2022-12-04T17:31:14.220Z,101568.63
2022-12-04T17:33:16.512Z,101583.94
2022-12-04T17:35:18.893Z,101578.63
2022-12-04T17:37:22.382Z,101576.00
2022-12-04T17:39:24.827Z,101577.81
2022-12-04T17:41:26.971Z,101577.50
2022-12-04T17:43:30.301Z,101581.69
2022-12-04T17:45:32.466Z,101580.22
2022-12-04T17:47:36.170Z,101586.88
2022-12-04T17:49:38.316Z,101579.28
2022-12-04T17:51:40.400Z,101588.06
2022-12-04T17:53:42.743Z,101593.31
2022-12-04T17:55:45.026Z,101593.19
2022-12-04T17:57:47.429Z,101590.69
2022-12-04T17:59:50.709Z,101590.47
2022-12-04T18:01:53.078Z,101592.31
2022-12-04T18:03:59.181Z,101594.44
2022-12-04T18:06:10.976Z,101597.56
2022-12-04T18:08:13.307Z,101597.94
2022-12-04T18:10:15.940Z,101597.06
2022-12-04T18:12:18.072Z,101600.19
2022-12-04T18:14:22.860Z,101597.31
2022-12-04T18:16:25.752Z,101605.13
2022-12-04T18:18:27.895Z,101603.56
2022-12-04T18:20:30.334Z,101598.75
2022-12-04T18:22:32.706Z,101591.88
2022-12-04T18:24:35.511Z,101594.81
2022-12-04T18:26:41.116Z,101604.19
2022-12-04T18:28:43.805Z,101607.38
2022-12-04T18:30:46.233Z,101596.38
2022-12-04T18:32:48.651Z,101606.59
2022-12-04T18:34:51.036Z,101604.19
2022-12-04T18:36:53.090Z,101591.50
2022-12-04T18:38:57.515Z,101608.84
2022-12-04T18:41:04.393Z,101607.81
2022-12-04T18:43:06.483Z,101605.44
2022-12-04T18:45:09.585Z,101602.94
2022-12-04T18:47:11.560Z,101605.94
2022-12-04T18:49:14.036Z,101612.81
2022-12-04T18:51:27.032Z,101612.50
2022-12-04T18:53:29.226Z,101622.84
2022-12-04T18:55:31.321Z,101613.69
2022-12-04T18:57:33.377Z,101617.41
2022-12-04T18:59:37.563Z,101616.91
2022-12-04T19:01:40.640Z,101623.72
2022-12-04T19:03:43.103Z,101619.16
2022-12-04T19:05:51.105Z,101622.63
2022-12-04T19:07:54.070Z,101621.72
2022-12-04T19:10:11.953Z,101628.59
2022-12-04T19:12:14.361Z,101629.91
2022-12-04T19:14:23.654Z,101624.94
2022-12-04T19:16:26.223Z,101639.50
2022-12-04T19:18:30.203Z,101634.47
2022-12-04T19:20:32.862Z,101629.47
2022-12-04T19:22:35.949Z,101635.19
2022-12-04T19:24:38.031Z,101636.06
2022-12-04T19:26:41.025Z,101640.31
2022-12-04T19:28:43.135Z,101645.41
2022-12-04T19:30:45.464Z,101631.03
2022-12-04T19:32:47.652Z,101638.56
2022-12-04T19:34:50.369Z,101638.63
2022-12-04T19:36:54.651Z,101636.53
2022-12-04T19:38:58.325Z,101639.28
2022-12-04T19:41:11.470Z,101641.19
2022-12-04T19:43:13.500Z,101637.22
2022-12-04T19:45:15.761Z,101639.59
2022-12-04T19:47:19.122Z,101646.94
2022-12-04T19:49:21.250Z,101645.81
2022-12-04T19:51:23.411Z,101652.16
2022-12-04T19:53:25.668Z,101657.66
2022-12-04T19:55:27.986Z,101657.66
2022-12-04T19:57:30.632Z,101656.78
2022-12-04T19:59:37.001Z,101651.66
2022-12-04T20:01:40.634Z,101656.84
2022-12-04T20:03:42.803Z,101657.72
2022-12-04T20:05:45.050Z,101650.56
2022-12-04T20:07:47.178Z,101656.63
2022-12-04T20:09:52.410Z,101655.97
2022-12-04T20:11:54.964Z,101661.63
2022-12-04T20:13:59.459Z,101664.44
2022-12-04T20:16:03.123Z,101673.75
2022-12-04T20:18:05.652Z,101666.81
2022-12-04T20:20:09.396Z,101673.38
2022-12-04T20:22:11.484Z,101675.84
2022-12-04T20:24:16.229Z,101670.16
2022-12-04T20:26:21.535Z,101675.50
2022-12-04T20:28:23.872Z,101669.56
2022-12-04T20:30:27.923Z,101674.47
2022-12-04T20:32:30.152Z,101669.94
2022-12-04T20:34:32.292Z,101676.16
2022-12-04T20:36:40.426Z,101683.41
2022-12-04T20:38:42.973Z,101688.91
2022-12-04T20:40:45.719Z,101685.53
2022-12-04T20:42:47.922Z,101691.66
2022-12-04T20:44:50.168Z,101694.97
2022-12-04T20:46:53.671Z,101687.34
2022-12-04T20:48:55.793Z,101687.28
2022-12-04T20:51:01.189Z,101693.84
2022-12-04T20:53:03.452Z,101691.22
2022-12-04T20:55:07.122Z,101691.81
2022-12-04T20:57:10.012Z,101693.84
2022-12-04T20:59:14.861Z,101700.56
2022-12-04T21:01:19.319Z,101696.94
2022-12-04T21:03:21.365Z,101690.31
2022-12-04T21:05:23.603Z,101692.88
2022-12-04T21:07:25.652Z,101702.03
2022-12-04T21:09:27.942Z,101701.88
2022-12-04T21:11:34.494Z,101707.88
2022-12-04T21:13:47.611Z,101704.66
2022-12-04T21:16:01.607Z,101702.25
2022-12-04T21:18:04.060Z,101707.59
2022-12-04T21:20:08.017Z,101709.63
2022-12-04T21:22:10.620Z,101711.59
2022-12-04T21:24:15.141Z,101706.50
2022-12-04T21:26:17.213Z,101707.38
2022-12-04T21:28:19.469Z,101706.34
2022-12-04T21:30:21.523Z,101704.94
2022-12-04T21:32:24.072Z,101707.16
2022-12-04T21:34:26.261Z,101714.75
2022-12-04T21:36:28.601Z,101713.88
2022-12-04T21:38:35.751Z,101713.00
2022-12-04T21:40:42.403Z,101713.06
2022-12-04T21:42:45.280Z,101707.16
2022-12-04T21:44:47.417Z,101709.78
2022-12-04T21:46:50.620Z,101716.28
2022-12-04T21:48:53.329Z,101711.00
2022-12-04T21:50:55.800Z,101709.09
2022-12-04T21:52:57.848Z,101712.59
2022-12-04T21:55:00.039Z,101713.72
2022-12-04T21:57:02.312Z,101716.03
2022-12-04T21:59:07.264Z,101710.13
2022-12-04T22:01:11.674Z,101715.91
2022-12-04T22:03:14.758Z,101708.44
2022-12-04T22:05:17.066Z,101712.59
2022-12-04T22:07:19.307Z,101719.63
2022-12-04T22:09:21.521Z,101720.06
2022-12-04T22:11:23.582Z,101717.56
2022-12-04T22:13:25.902Z,101717.00
2022-12-04T22:15:27.919Z,101723.50
2022-12-04T22:17:30.800Z,101720.44
2022-12-04T22:19:34.323Z,101718.06
2022-12-04T22:21:36.562Z,101726.13
2022-12-04T22:23:38.801Z,101723.50
2022-12-04T22:25:41.051Z,101726.69
2022-12-04T22:27:43.033Z,101734.34
2022-12-04T22:29:52.541Z,101718.84
2022-12-04T22:31:54.732Z,101731.97
2022-12-04T22:33:59.196Z,101734.69
2022-12-04T22:36:11.780Z,101725.47
2022-12-04T22:38:13.801Z,101721.09
2022-12-04T22:40:17.199Z,101730.50
2022-12-04T22:42:19.900Z,101727.28
2022-12-04T22:44:22.163Z,101723.06
2022-12-04T22:46:24.398Z,101724.75
2022-12-04T22:48:30.031Z,101723.97
2022-12-04T22:50:32.671Z,101725.47
2022-12-04T22:52:34.841Z,101726.19
2022-12-04T22:54:36.900Z,101727.00
2022-12-04T22:56:39.044Z,101723.16
2022-12-04T22:58:41.200Z,101729.41
2022-12-04T23:00:43.260Z,101735.88
2022-12-04T23:02:45.373Z,101737.97
2022-12-04T23:04:47.635Z,101740.19
2022-12-04T23:06:49.873Z,101739.41
2022-12-04T23:08:57.101Z,101747.31
2022-12-04T23:11:03.515Z,101738.75
2022-12-04T23:13:05.832Z,101738.19
2022-12-04T23:15:08.762Z,101742.81
2022-12-04T23:17:10.866Z,101744.75
2022-12-04T23:19:16.543Z,101748.28
2022-12-04T23:21:20.240Z,101744.91
2022-12-04T23:23:22.620Z,101736.75
2022-12-04T23:25:24.890Z,101739.31
2022-12-04T23:27:27.113Z,101738.28
2022-12-04T23:29:52.057Z,101733.88
2022-12-04T23:31:51.696Z,101739.97
2022-12-04T23:33:53.976Z,101740.03
2022-12-04T23:35:58.471Z,101740.84
2022-12-04T23:38:00.487Z,101742.34
2022-12-04T23:40:02.610Z,101740.44
2022-12-04T23:42:05.189Z,101739.16
2022-12-04T23:44:07.301Z,101735.47
2022-12-04T23:46:11.970Z,101734.44
2022-12-04T23:48:13.961Z,101738.19
2022-12-04T23:50:16.052Z,101736.34
2022-12-04T23:52:18.130Z,101742.94